createdAt,value
2017-05-12T00:00:43.739Z,15.8
2017-05-12T00:01:46.397Z,15.6
2017-05-12T00:02:48.794Z,15.4
2017-05-12T00:03:51.160Z,15.1
2017-05-12T00:04:53.544Z,15.2
2017-05-12T00:05:55.897Z,15.3
2017-05-12T00:06:58.345Z,15.2
2017-05-12T00:08:00.691Z,15.2
2017-05-12T00:09:03.066Z,15.3
2017-05-12T00:10:05.447Z,14.9
2017-05-12T00:11:07.879Z,15.1
2017-05-12T00:12:10.257Z,15.2
2017-05-12T00:13:12.637Z,15.2
2017-05-12T00:14:15.325Z,15.1
2017-05-12T00:15:17.653Z,15.1
2017-05-12T00:16:20.011Z,15
2017-05-12T00:17:22.364Z,15.1
2017-05-12T00:18:24.689Z,15.1
2017-05-12T00:19:27.089Z,15
2017-05-12T00:20:29.449Z,15
2017-05-12T00:21:31.819Z,15.1
2017-05-12T00:22:34.195Z,15
2017-05-12T00:23:36.575Z,15.1
2017-05-12T00:24:38.974Z,15.1
2017-05-12T00:25:41.372Z,15.2
2017-05-12T00:26:43.760Z,15.1
2017-05-12T00:27:46.103Z,15.3
2017-05-12T00:28:48.507Z,15.3
2017-05-12T00:29:50.900Z,14.9
2017-05-12T00:30:53.342Z,15
2017-05-12T00:31:55.693Z,15.1
2017-05-12T00:32:58.051Z,15.2
2017-05-12T00:34:00.421Z,15.3
2017-05-12T00:35:02.776Z,15.1
2017-05-12T00:36:05.111Z,15.1
2017-05-12T00:37:07.554Z,15.1
2017-05-12T00:38:09.944Z,14.8
2017-05-12T00:39:12.308Z,15
2017-05-12T00:40:14.629Z,15
2017-05-12T00:41:17.018Z,15.2
2017-05-12T00:42:19.446Z,15.2
2017-05-12T00:43:21.825Z,15.3
2017-05-12T00:44:24.217Z,15
2017-05-12T00:45:26.600Z,14.9
2017-05-12T00:46:29.000Z,15
2017-05-12T00:47:31.911Z,15
2017-05-12T00:48:34.250Z,14.9
2017-05-12T00:49:36.612Z,14.9
2017-05-12T00:50:38.989Z,14.9
2017-05-12T00:51:41.392Z,14.9
2017-05-12T00:52:43.723Z,15
2017-05-12T00:53:46.114Z,14.8
2017-05-12T00:54:48.524Z,14.9
2017-05-12T00:55:51.570Z,15
2017-05-12T00:56:53.912Z,15
2017-05-12T00:57:56.256Z,14.9
2017-05-12T00:58:58.602Z,14.9
2017-05-12T01:00:00.929Z,14.9
2017-05-12T01:01:03.615Z,14.8
2017-05-12T01:02:06.013Z,14.7
2017-05-12T01:03:08.383Z,14.8
2017-05-12T01:04:10.741Z,14.9
2017-05-12T01:05:13.097Z,15
2017-05-12T01:06:15.488Z,15.1
2017-05-12T01:07:17.906Z,15.1
2017-05-12T01:08:20.591Z,14.9
2017-05-12T01:09:22.960Z,14.9
2017-05-12T01:10:25.304Z,14.9
2017-05-12T01:11:27.753Z,14.8
2017-05-12T01:12:30.097Z,15.2
2017-05-12T01:13:32.488Z,15.2
2017-05-12T01:14:34.805Z,15.3
2017-05-12T01:15:37.162Z,15.3
2017-05-12T01:16:39.643Z,15.3
2017-05-12T01:17:41.969Z,15.3
2017-05-12T01:18:44.295Z,15.3
2017-05-12T01:19:46.627Z,15.3
2017-05-12T01:20:49.005Z,15.2
2017-05-12T01:21:51.400Z,15.2
2017-05-12T01:22:53.790Z,15.2
2017-05-12T01:23:56.155Z,15.1
2017-05-12T01:24:58.517Z,14.9
2017-05-12T01:26:00.885Z,14.9
2017-05-12T01:27:03.260Z,14.9
2017-05-12T01:28:05.609Z,14.8
2017-05-12T01:29:07.961Z,14.8
2017-05-12T01:30:10.345Z,14.9
2017-05-12T01:31:12.684Z,14.9
2017-05-12T01:32:15.102Z,15
2017-05-12T01:33:17.490Z,14.9
2017-05-12T01:34:19.842Z,15
2017-05-12T01:35:22.169Z,15
2017-05-12T01:36:24.498Z,14.9
2017-05-12T01:37:26.867Z,14.7
2017-05-12T01:38:29.240Z,14.8
2017-05-12T01:39:31.570Z,14.8
2017-05-12T01:40:33.913Z,14.9
2017-05-12T01:41:36.295Z,14.9
2017-05-12T01:42:38.709Z,14.9
2017-05-12T01:43:41.081Z,14.7
2017-05-12T01:44:43.433Z,14.7
2017-05-12T01:45:45.757Z,14.7
2017-05-12T01:46:48.174Z,14.6
2017-05-12T01:47:50.594Z,14.6
2017-05-12T01:48:52.916Z,14.7
2017-05-12T01:49:55.268Z,14.7
2017-05-12T01:50:57.636Z,14.7
2017-05-12T01:52:00.044Z,14.6
2017-05-12T01:53:02.394Z,14.6
2017-05-12T01:54:04.752Z,14.6
2017-05-12T01:55:07.147Z,14.6
2017-05-12T01:56:09.520Z,14.7
2017-05-12T01:57:11.909Z,14.6
2017-05-12T01:58:14.287Z,14.6
2017-05-12T01:59:16.667Z,14.6
2017-05-12T02:00:19.337Z,14.6
2017-05-12T02:01:21.732Z,14.5
2017-05-12T02:02:24.149Z,14.4
2017-05-12T02:03:26.578Z,14.4
2017-05-12T02:04:28.953Z,14.4
2017-05-12T02:05:31.311Z,14.4
2017-05-12T02:06:33.672Z,14.5
2017-05-12T02:07:35.997Z,14.4
2017-05-12T02:08:38.369Z,14.4
2017-05-12T02:09:40.695Z,14.5
2017-05-12T02:10:43.021Z,14.6
2017-05-12T02:11:45.398Z,14.6
2017-05-12T02:12:47.778Z,14.5
2017-05-12T02:13:50.115Z,14.4
2017-05-12T02:14:52.436Z,14.5
2017-05-12T02:15:54.834Z,14.5
2017-05-12T02:16:57.194Z,14.5
2017-05-12T02:17:59.591Z,14.4
2017-05-12T02:19:01.980Z,14.4
2017-05-12T02:20:04.285Z,14.5
2017-05-12T02:21:06.665Z,14.5
2017-05-12T02:22:09.105Z,14.4
2017-05-12T02:23:11.466Z,14.4
2017-05-12T02:24:13.795Z,14.5
2017-05-12T02:25:16.143Z,14.5
2017-05-12T02:26:18.589Z,14.4
2017-05-12T02:27:20.936Z,14.5
2017-05-12T02:28:23.262Z,14.7
2017-05-12T02:29:25.637Z,14.5
2017-05-12T02:30:28.080Z,14.4
2017-05-12T02:31:30.448Z,14.6
2017-05-12T02:32:32.780Z,14.5
2017-05-12T02:33:35.130Z,14.4
2017-05-12T02:34:37.491Z,14.5
2017-05-12T02:35:39.808Z,14.4
2017-05-12T02:36:42.232Z,14.4
2017-05-12T02:37:44.573Z,14.3
2017-05-12T02:38:46.962Z,14.1
2017-05-12T02:39:49.335Z,14.2
2017-05-12T02:40:51.675Z,14.1
2017-05-12T02:41:54.059Z,14
2017-05-12T02:42:56.396Z,14.1
2017-05-12T02:43:58.782Z,14
2017-05-12T02:45:01.127Z,14.1
2017-05-12T02:46:03.480Z,14.1
2017-05-12T02:47:05.824Z,14.1
2017-05-12T02:48:08.210Z,14.1
2017-05-12T02:49:10.550Z,14.1
2017-05-12T02:50:12.919Z,14.1
2017-05-12T02:51:15.241Z,14.1
2017-05-12T02:52:17.634Z,14.1
2017-05-12T02:53:19.974Z,14.1
2017-05-12T02:54:22.357Z,14
2017-05-12T02:55:24.721Z,14.1
2017-05-12T02:56:27.059Z,14
2017-05-12T02:57:29.477Z,14.1
2017-05-12T02:58:31.855Z,14.1
2017-05-12T02:59:34.186Z,14.1
2017-05-12T03:00:36.507Z,14.1
2017-05-12T03:01:38.901Z,14.1
2017-05-12T03:02:41.273Z,14
2017-05-12T03:03:43.635Z,14
2017-05-12T03:04:45.977Z,14.1
2017-05-12T03:05:48.398Z,14
2017-05-12T03:06:50.702Z,14.1
2017-05-12T03:07:53.061Z,14.1
2017-05-12T03:08:55.419Z,14
2017-05-12T03:09:57.795Z,14
2017-05-12T03:11:00.159Z,14
2017-05-12T03:12:02.475Z,13.9
2017-05-12T03:13:04.862Z,14.1
2017-05-12T03:14:07.210Z,14
2017-05-12T03:15:09.572Z,14.1
2017-05-12T03:16:11.964Z,14.2
2017-05-12T03:17:14.338Z,14.2
2017-05-12T03:18:16.931Z,14.1
2017-05-12T03:19:19.314Z,14
2017-05-12T03:20:21.640Z,14
2017-05-12T03:21:24.049Z,13.9
2017-05-12T03:22:26.379Z,13.9
2017-05-12T03:23:28.820Z,13.9
2017-05-12T03:24:31.170Z,13.7
2017-05-12T03:25:33.527Z,13.9
2017-05-12T03:26:35.904Z,13.9
2017-05-12T03:27:38.279Z,13.9
2017-05-12T03:28:40.625Z,13.9
2017-05-12T03:29:42.931Z,14
2017-05-12T03:30:45.288Z,14
2017-05-12T03:31:47.664Z,13.9
2017-05-12T03:32:50.036Z,13.8
2017-05-12T03:33:52.579Z,13.8
2017-05-12T03:34:54.895Z,13.7
2017-05-12T03:35:57.240Z,13.8
2017-05-12T03:36:59.646Z,13.7
2017-05-12T03:38:01.997Z,13.6
2017-05-12T03:39:04.327Z,13.8
2017-05-12T03:40:06.678Z,13.7
2017-05-12T03:41:09.110Z,13.9
2017-05-12T03:42:11.460Z,13.9
2017-05-12T03:43:13.818Z,14
2017-05-12T03:44:16.175Z,13.9
2017-05-12T03:45:18.568Z,13.9
2017-05-12T03:46:20.894Z,13.9
2017-05-12T03:47:23.238Z,13.8
2017-05-12T03:48:25.629Z,13.8
2017-05-12T03:49:28.004Z,13.8
2017-05-12T03:50:30.342Z,13.8
2017-05-12T03:51:32.701Z,13.8
2017-05-12T03:52:35.095Z,13.9
2017-05-12T03:53:37.436Z,13.9
2017-05-12T03:54:39.853Z,13.9
2017-05-12T03:55:42.220Z,13.8
2017-05-12T03:56:44.592Z,13.7
2017-05-12T03:57:47.026Z,13.8
2017-05-12T03:58:49.385Z,13.9
2017-05-12T03:59:51.700Z,13.9
2017-05-12T04:00:54.070Z,14
2017-05-12T04:01:56.935Z,13.9
2017-05-12T04:02:59.313Z,14
2017-05-12T04:04:01.635Z,13.9
2017-05-12T04:05:04.069Z,13.8
2017-05-12T04:06:06.452Z,13.6
2017-05-12T04:07:08.839Z,14
2017-05-12T04:08:11.228Z,14
2017-05-12T04:09:13.563Z,14
2017-05-12T04:11:27.235Z,14
2017-05-12T04:12:29.649Z,14.2
2017-05-12T04:13:32.006Z,14.2
2017-05-12T04:14:34.342Z,14.3
2017-05-12T04:15:36.694Z,14.4
2017-05-12T04:16:39.056Z,14.3
2017-05-12T04:17:41.413Z,14.4
2017-05-12T04:18:43.797Z,14.2
2017-05-12T04:19:46.153Z,14.1
2017-05-12T04:20:48.523Z,14
2017-05-12T04:21:50.884Z,14.1
2017-05-12T04:22:53.202Z,14.1
2017-05-12T04:23:55.555Z,14
2017-05-12T04:24:57.972Z,14
2017-05-12T04:26:00.303Z,14.1
2017-05-12T04:27:02.649Z,14.2
2017-05-12T04:28:04.968Z,14.3
2017-05-12T04:29:07.332Z,14.4
2017-05-12T04:30:09.716Z,14.6
2017-05-12T04:31:12.054Z,14.6
2017-05-12T04:32:14.420Z,14.6
2017-05-12T04:33:16.745Z,14.4
2017-05-12T04:34:19.134Z,14.4
2017-05-12T04:35:21.472Z,14.4
2017-05-12T04:36:23.825Z,14.4
2017-05-12T04:37:26.191Z,14.4
2017-05-12T04:38:29.148Z,14.3
2017-05-12T04:39:31.579Z,14.2
2017-05-12T04:40:33.966Z,14.2
2017-05-12T04:41:36.330Z,14.3
2017-05-12T04:42:38.784Z,14.4
2017-05-12T04:43:41.166Z,14.3
2017-05-12T04:44:43.623Z,14.5
2017-05-12T04:45:46.061Z,14.6
2017-05-12T04:46:48.590Z,14.7
2017-05-12T04:47:51.019Z,14.7
2017-05-12T04:48:53.680Z,14.6
2017-05-12T04:49:56.074Z,14.6
2017-05-12T04:50:58.533Z,14.6
2017-05-12T04:52:00.856Z,14.7
2017-05-12T04:53:03.173Z,14.6
2017-05-12T04:54:05.542Z,14.6
2017-05-12T04:55:07.969Z,14.6
2017-05-12T04:56:10.370Z,14.7
2017-05-12T04:57:12.731Z,14.9
2017-05-12T04:58:15.117Z,14.9
2017-05-12T04:59:17.446Z,15
2017-05-12T05:00:19.844Z,15.1
2017-05-12T05:01:22.219Z,15.1
2017-05-12T05:02:24.590Z,15.1
2017-05-12T05:03:26.968Z,15.1
2017-05-12T05:04:29.401Z,15.1
2017-05-12T05:05:31.778Z,15.1
2017-05-12T05:06:34.160Z,15.2
2017-05-12T05:07:36.546Z,15.2
2017-05-12T05:08:39.320Z,15.2
2017-05-12T05:09:41.892Z,15.3
2017-05-12T05:10:44.508Z,15.4
2017-05-12T05:11:46.914Z,15.4
2017-05-12T05:12:49.356Z,15.4
2017-05-12T05:13:51.788Z,15.4
2017-05-12T05:14:54.463Z,15.3
2017-05-12T05:15:57.909Z,15.5
2017-05-12T05:17:00.265Z,15.3
2017-05-12T05:18:02.637Z,15.5
2017-05-12T05:19:04.984Z,15.4
2017-05-12T05:20:07.335Z,15.4
2017-05-12T05:21:09.773Z,15.4
2017-05-12T05:22:12.132Z,15.5
2017-05-12T05:23:14.533Z,15.6
2017-05-12T05:24:16.896Z,15.5
2017-05-12T05:25:19.290Z,15.6
2017-05-12T05:26:21.637Z,15.7
2017-05-12T05:27:24.116Z,15.6
2017-05-12T05:28:26.490Z,15.7
2017-05-12T05:29:28.930Z,15.7
2017-05-12T05:30:31.284Z,15.8
2017-05-12T05:31:33.641Z,15.8
2017-05-12T05:32:39.468Z,15.9
2017-05-12T05:34:53.229Z,15.9
2017-05-12T05:35:55.677Z,15.9
2017-05-12T05:36:58.948Z,15.8
2017-05-12T05:38:01.297Z,15.8
2017-05-12T05:39:03.675Z,15.9
2017-05-12T05:40:06.027Z,15.9
2017-05-12T05:41:08.503Z,15.9
2017-05-12T05:42:10.861Z,15.8
2017-05-12T05:43:13.210Z,15.8
2017-05-12T05:44:15.587Z,15.7
2017-05-12T05:45:18.013Z,15.9
2017-05-12T05:46:20.389Z,15.9
2017-05-12T05:47:22.722Z,15.8
2017-05-12T05:48:25.064Z,16
2017-05-12T05:49:27.432Z,16
2017-05-12T05:50:29.921Z,15.9
2017-05-12T05:51:32.288Z,15.9
2017-05-12T05:52:34.710Z,15.8
2017-05-12T05:53:37.092Z,16
2017-05-12T05:54:39.593Z,16.1
2017-05-12T05:55:42.036Z,16.1
2017-05-12T05:56:44.421Z,16.3
2017-05-12T05:57:46.899Z,16.4
2017-05-12T05:58:49.496Z,16.1
2017-05-12T05:59:51.873Z,16.1
2017-05-12T06:00:54.212Z,16.1
2017-05-12T06:01:56.601Z,16.2
2017-05-12T06:02:59.116Z,16.1
2017-05-12T06:04:01.507Z,16.2
2017-05-12T06:05:03.911Z,16.1
2017-05-12T06:06:06.244Z,16.1
2017-05-12T06:07:08.654Z,16
2017-05-12T06:08:11.075Z,16.1
2017-05-12T06:09:13.456Z,16
2017-05-12T06:10:15.897Z,16.1
2017-05-12T06:11:18.403Z,16.1
2017-05-12T06:12:20.751Z,16
2017-05-12T06:13:23.134Z,16.2
2017-05-12T06:14:25.511Z,16.1
2017-05-12T06:15:28.020Z,16.1
2017-05-12T06:16:30.405Z,16.1
2017-05-12T06:17:32.771Z,16.1
2017-05-12T06:18:35.798Z,16.2
2017-05-12T06:19:38.376Z,16.3
2017-05-12T06:20:40.804Z,16
2017-05-12T06:21:43.306Z,16.3
2017-05-12T06:22:45.759Z,16.3
2017-05-12T06:23:48.257Z,16.3
2017-05-12T06:24:50.667Z,16.3
2017-05-12T06:25:53.110Z,16.5
2017-05-12T06:26:55.490Z,16.5
2017-05-12T06:27:57.864Z,16.4
2017-05-12T06:29:00.379Z,16.4
2017-05-12T06:30:02.789Z,16.2
2017-05-12T06:31:05.220Z,16.6
2017-05-12T06:32:07.650Z,16.6
2017-05-12T06:33:10.017Z,16.5
2017-05-12T06:34:12.441Z,16.6
2017-05-12T06:35:14.814Z,16.7
2017-05-12T06:36:17.191Z,16.8
2017-05-12T06:37:19.726Z,16.8
2017-05-12T06:38:22.073Z,16.7
2017-05-12T06:39:24.470Z,16.6
2017-05-12T06:40:26.896Z,16.6
2017-05-12T06:41:29.369Z,16.7
2017-05-12T06:42:31.774Z,16.7
2017-05-12T06:43:34.186Z,16.8
2017-05-12T06:44:36.601Z,16.9
2017-05-12T06:45:38.973Z,17
2017-05-12T06:46:41.327Z,17.1
2017-05-12T06:47:43.747Z,17.3
2017-05-12T06:48:46.117Z,17.3
2017-05-12T06:49:48.644Z,17.4
2017-05-12T06:50:51.028Z,17.5
2017-05-12T06:51:53.501Z,17.2
2017-05-12T06:52:55.941Z,17.5
2017-05-12T06:53:58.451Z,17.6
2017-05-12T06:55:01.172Z,17.7
2017-05-12T06:56:03.647Z,17.5
2017-05-12T06:57:06.160Z,17.5
2017-05-12T06:58:08.649Z,17.6
2017-05-12T06:59:11.077Z,17.7
2017-05-12T07:00:13.688Z,17.5
2017-05-12T07:01:16.089Z,17.6
2017-05-12T07:02:18.586Z,17.5
2017-05-12T07:03:21.000Z,17.5
2017-05-12T07:04:23.430Z,17.5
2017-05-12T07:05:25.804Z,17.1
2017-05-12T07:06:29.004Z,17.2
2017-05-12T07:07:31.436Z,17.2
2017-05-12T07:08:33.809Z,17
2017-05-12T07:09:36.572Z,16.9
2017-05-12T07:10:38.921Z,16.9
2017-05-12T07:11:41.971Z,16.9
2017-05-12T07:12:44.326Z,16.8
2017-05-12T07:13:46.786Z,16.5
2017-05-12T07:14:49.870Z,16.6
2017-05-12T07:15:52.327Z,16.9
2017-05-12T07:16:54.781Z,16.9
2017-05-12T07:17:57.299Z,16.9
2017-05-12T07:18:59.852Z,16.8
2017-05-12T07:20:02.328Z,16.9
2017-05-12T07:21:04.813Z,16.9
2017-05-12T07:22:07.254Z,16.9
2017-05-12T07:23:10.645Z,16.7
2017-05-12T07:24:13.161Z,16.9
2017-05-12T07:25:15.576Z,16.9
2017-05-12T07:26:18.492Z,16.9
2017-05-12T07:27:21.704Z,16.8
2017-05-12T07:28:24.437Z,16.9
2017-05-12T07:29:27.302Z,16.8
2017-05-12T07:30:30.088Z,16.8
2017-05-12T07:31:32.953Z,16.9
2017-05-12T07:32:35.477Z,16.8
2017-05-12T07:33:38.859Z,17
2017-05-12T07:34:42.009Z,16.9
2017-05-12T07:35:44.732Z,16.8
2017-05-12T07:36:47.660Z,16.7
2017-05-12T07:37:50.471Z,16.7
2017-05-12T07:38:53.033Z,16.9
2017-05-12T07:39:55.603Z,17.2
2017-05-12T07:40:58.060Z,17
2017-05-12T07:42:00.664Z,17.2
2017-05-12T07:43:03.107Z,17.3
2017-05-12T07:44:06.736Z,17.2
2017-05-12T07:45:09.270Z,17.4
2017-05-12T07:46:11.678Z,17.3
2017-05-12T07:47:14.142Z,17.2
2017-05-12T07:48:16.742Z,17.4
2017-05-12T07:49:20.540Z,17.4
2017-05-12T07:50:27.354Z,17.2
2017-05-12T07:51:29.882Z,17.2
2017-05-12T07:52:32.300Z,17.2
2017-05-12T07:53:34.736Z,17.2
2017-05-12T07:54:37.177Z,17.1
2017-05-12T07:55:39.797Z,17.1
2017-05-12T07:56:42.362Z,17.2
2017-05-12T07:57:49.573Z,17.2
2017-05-12T07:58:52.545Z,17.2
2017-05-12T07:59:55.828Z,17.2
2017-05-12T08:00:58.317Z,17.3
2017-05-12T08:02:00.772Z,17.4
2017-05-12T08:03:03.270Z,17.6
2017-05-12T08:04:05.678Z,17.5
2017-05-12T08:05:08.099Z,17.7
2017-05-12T08:06:10.887Z,17.8
2017-05-12T08:07:13.419Z,18
2017-05-12T08:08:15.858Z,18.3
2017-05-12T08:09:18.345Z,18.3
2017-05-12T08:10:20.707Z,18.5
2017-05-12T08:11:23.143Z,18.5
2017-05-12T08:12:25.622Z,18.5
2017-05-12T08:13:27.969Z,18.6
2017-05-12T08:14:30.370Z,18.6
2017-05-12T08:15:32.776Z,18.6
2017-05-12T08:16:35.268Z,18.8
2017-05-12T08:17:38.021Z,19
2017-05-12T08:18:40.413Z,19
2017-05-12T08:19:42.822Z,18.7
2017-05-12T08:20:45.313Z,18.8
2017-05-12T08:21:47.863Z,19
2017-05-12T08:22:50.357Z,18.9
2017-05-12T08:23:52.833Z,18.5
2017-05-12T08:24:55.252Z,18.7
2017-05-12T08:25:57.762Z,18.8
2017-05-12T08:27:00.285Z,19.1
2017-05-12T08:28:02.774Z,19.1
2017-05-12T08:29:06.199Z,19.2
2017-05-12T08:30:08.773Z,19.4
2017-05-12T08:31:11.141Z,19.3
2017-05-12T08:32:13.665Z,19
2017-05-12T08:33:16.104Z,19
2017-05-12T08:34:18.642Z,19.2
2017-05-12T08:35:21.108Z,19.3
2017-05-12T08:36:23.545Z,19.6
2017-05-12T08:37:25.951Z,19.6
2017-05-12T08:38:28.399Z,19.4
2017-05-12T08:39:30.812Z,19.4
2017-05-12T08:40:33.199Z,19.3
2017-05-12T08:41:35.674Z,19.4
2017-05-12T08:42:38.110Z,19.3
2017-05-12T08:43:40.574Z,19
2017-05-12T08:44:43.052Z,19
2017-05-12T08:45:45.566Z,19.2
2017-05-12T08:46:48.141Z,19.4
2017-05-12T08:47:50.605Z,19.7
2017-05-12T08:48:53.062Z,19.7
2017-05-12T08:49:55.632Z,19.8
2017-05-12T08:50:58.142Z,19.9
2017-05-12T08:52:00.620Z,19.8
2017-05-12T08:53:03.095Z,19.9
2017-05-12T08:54:05.567Z,20.2
2017-05-12T08:55:08.011Z,20.1
2017-05-12T08:56:12.891Z,19.8
2017-05-12T08:57:15.515Z,20
2017-05-12T08:58:17.933Z,20
2017-05-12T08:59:20.533Z,20.5
2017-05-12T09:00:23.309Z,21
2017-05-12T09:01:25.760Z,21
2017-05-12T09:02:28.291Z,21
2017-05-12T09:03:30.736Z,21
2017-05-12T09:04:33.218Z,20.8
2017-05-12T09:05:35.722Z,21
2017-05-12T09:06:38.181Z,20.9
2017-05-12T09:07:40.700Z,20.7
2017-05-12T09:08:43.143Z,20.5
2017-05-12T09:09:46.581Z,20.3
2017-05-12T09:10:49.155Z,20.1
2017-05-12T09:11:51.712Z,19.8
2017-05-12T09:12:54.136Z,20
2017-05-12T09:13:57.364Z,19.9
2017-05-12T09:15:00.238Z,19.8
2017-05-12T09:16:02.998Z,19.6
2017-05-12T09:17:05.871Z,19.8
2017-05-12T09:18:09.884Z,19
2017-05-12T09:19:12.790Z,19.4
2017-05-12T09:20:16.061Z,19.5
2017-05-12T09:21:19.912Z,20.1
2017-05-12T09:22:22.655Z,20.5
2017-05-12T09:23:25.345Z,20.5
2017-05-12T09:24:27.861Z,20.7
2017-05-12T09:25:30.661Z,20.6
2017-05-12T09:26:33.280Z,20
2017-05-12T09:27:36.285Z,20
2017-05-12T09:28:38.933Z,19.6
2017-05-12T09:29:41.658Z,19.7
2017-05-12T09:30:53.137Z,20.1
2017-05-12T09:31:56.113Z,19.7
2017-05-12T09:32:58.783Z,19.5
2017-05-12T09:34:01.604Z,19.6
2017-05-12T09:35:04.757Z,19.6
2017-05-12T09:36:07.391Z,19.8
2017-05-12T09:37:10.782Z,19.8
2017-05-12T09:38:13.554Z,19.7
2017-05-12T09:39:16.245Z,19.7
2017-05-12T09:40:19.208Z,19.4
2017-05-12T09:41:21.733Z,19.4
2017-05-12T09:42:24.217Z,19.4
2017-05-12T09:43:26.708Z,19.1
2017-05-12T09:44:29.399Z,19.4
2017-05-12T09:45:32.114Z,19.1
2017-05-12T09:46:37.317Z,19
2017-05-12T09:47:40.381Z,19
2017-05-12T09:48:42.964Z,19.1
2017-05-12T09:49:45.474Z,19.1
2017-05-12T09:50:48.008Z,18.8
2017-05-12T09:51:50.565Z,18.9
2017-05-12T09:52:53.021Z,19
2017-05-12T09:53:55.601Z,19.1
2017-05-12T09:54:58.025Z,19.3
2017-05-12T09:56:01.362Z,19.3
2017-05-12T09:57:03.813Z,19.9
2017-05-12T09:58:06.373Z,20
2017-05-12T09:59:09.584Z,20.1
2017-05-12T10:00:12.044Z,20.3
2017-05-12T10:01:14.492Z,20.1
2017-05-12T10:02:16.938Z,20.7
2017-05-12T10:03:19.507Z,21
2017-05-12T10:04:22.200Z,20.6
2017-05-12T10:05:24.860Z,20.2
2017-05-12T10:06:27.281Z,20.6
2017-05-12T10:07:29.912Z,21.1
2017-05-12T10:08:32.407Z,20.9
2017-05-12T10:09:35.072Z,20.8
2017-05-12T10:10:37.504Z,20.5
2017-05-12T10:11:41.081Z,20.2
2017-05-12T10:12:44.174Z,20.3
2017-05-12T10:13:47.164Z,20.2
2017-05-12T10:14:50.426Z,20.1
2017-05-12T10:15:52.968Z,20
2017-05-12T10:16:55.425Z,20
2017-05-12T10:17:57.927Z,20.1
2017-05-12T10:19:00.468Z,20
2017-05-12T10:20:02.955Z,20.4
2017-05-12T10:21:06.040Z,20.5
2017-05-12T10:22:09.086Z,20.5
2017-05-12T10:23:11.508Z,20.3
2017-05-12T10:24:13.969Z,20.5
2017-05-12T10:25:16.425Z,20.7
2017-05-12T10:26:18.954Z,20.4
2017-05-12T10:27:21.495Z,20.5
2017-05-12T10:28:24.049Z,20.5
2017-05-12T10:29:26.506Z,20.6
2017-05-12T10:30:29.027Z,20.5
2017-05-12T10:31:31.534Z,20.1
2017-05-12T10:32:34.025Z,20.1
2017-05-12T10:33:36.413Z,20.1
2017-05-12T10:34:38.952Z,20.2
2017-05-12T10:35:42.213Z,20
2017-05-12T10:36:44.729Z,19.9
2017-05-12T10:37:47.242Z,19.9
2017-05-12T10:38:50.422Z,19.7
2017-05-12T10:39:53.648Z,19.5
2017-05-12T10:40:56.192Z,19.7
2017-05-12T10:41:58.807Z,19.5
2017-05-12T10:43:01.443Z,19.4
2017-05-12T10:44:04.059Z,19.1
2017-05-12T10:45:06.609Z,19.2
2017-05-12T10:46:09.240Z,19.2
2017-05-12T10:47:11.779Z,19.2
2017-05-12T10:48:14.269Z,19.4
2017-05-12T10:49:16.750Z,19.5
2017-05-12T10:50:19.537Z,19.4
2017-05-12T10:51:25.944Z,19.2
2017-05-12T10:52:28.505Z,19.3
2017-05-12T10:53:32.129Z,19
2017-05-12T10:54:34.684Z,19.1
2017-05-12T10:55:37.186Z,19.1
2017-05-12T10:56:40.435Z,19.1
2017-05-12T10:57:43.209Z,19.2
2017-05-12T10:58:45.726Z,19.1
2017-05-12T10:59:48.256Z,19.1
2017-05-12T11:00:51.011Z,19.1
2017-05-12T11:01:53.610Z,19.1
2017-05-12T11:02:56.307Z,19.1
2017-05-12T11:03:59.071Z,19.4
2017-05-12T11:05:02.833Z,19.8
2017-05-12T11:06:05.456Z,19.8
2017-05-12T11:07:08.251Z,20.1
2017-05-12T11:08:10.996Z,20.6
2017-05-12T11:09:14.712Z,20.7
2017-05-12T11:10:17.409Z,21.3
2017-05-12T11:11:22.090Z,21.5
2017-05-12T11:12:28.007Z,21.6
2017-05-12T11:14:38.552Z,21.1
2017-05-12T11:15:41.522Z,20.8
2017-05-12T11:16:44.284Z,20.4
2017-05-12T11:17:46.798Z,20.3
2017-05-12T11:18:49.585Z,20.3
2017-05-12T11:19:52.757Z,20.2
2017-05-12T11:20:56.425Z,20
2017-05-12T11:21:59.273Z,20
2017-05-12T11:23:02.859Z,19.7
2017-05-12T11:24:05.951Z,19.7
2017-05-12T11:25:08.569Z,19.7
2017-05-12T11:26:11.068Z,19.4
2017-05-12T11:28:25.881Z,19.3
2017-05-12T11:29:28.440Z,19.4
2017-05-12T11:30:31.062Z,19.2
2017-05-12T11:31:33.588Z,19.1
2017-05-12T11:32:36.099Z,19
2017-05-12T11:33:38.582Z,19
2017-05-12T11:34:41.090Z,19.3
2017-05-12T11:35:44.364Z,19.1
2017-05-12T11:36:46.927Z,19
2017-05-12T11:37:50.188Z,19.2
2017-05-12T11:38:53.436Z,19
2017-05-12T11:39:55.965Z,18.9
2017-05-12T11:40:58.456Z,18.9
2017-05-12T11:42:00.953Z,18.9
2017-05-12T11:43:04.057Z,19
2017-05-12T11:44:06.585Z,18.9
2017-05-12T11:45:09.251Z,19.1
2017-05-12T11:46:11.809Z,18.9
2017-05-12T11:47:14.335Z,18.8
2017-05-12T11:48:17.808Z,18.7
2017-05-12T11:49:20.413Z,18.6
2017-05-12T11:50:22.857Z,18.7
2017-05-12T11:51:25.389Z,18.7
2017-05-12T11:52:27.927Z,18.8
2017-05-12T11:53:32.255Z,18.5
2017-05-12T11:54:34.776Z,18.5
2017-05-12T11:55:37.292Z,18.3
2017-05-12T11:56:40.619Z,18.4
2017-05-12T11:57:44.117Z,18.5
2017-05-12T11:58:46.641Z,18.5
2017-05-12T11:59:49.241Z,18.4
2017-05-12T12:00:51.692Z,18.4
2017-05-12T12:01:54.808Z,18.6
2017-05-12T12:02:58.080Z,18.7
2017-05-12T12:04:01.837Z,18.5
2017-05-12T12:05:04.342Z,18.4
2017-05-12T12:06:07.324Z,18.5
2017-05-12T12:07:11.038Z,18.7
2017-05-12T12:08:13.537Z,18.8
2017-05-12T12:09:15.950Z,18.6
2017-05-12T12:10:18.546Z,18.5
2017-05-12T12:11:21.018Z,18.6
2017-05-12T12:12:23.544Z,18.6
2017-05-12T12:13:26.112Z,18.4
2017-05-12T12:14:28.641Z,18.3
2017-05-12T12:15:33.267Z,18.3
2017-05-12T12:16:35.773Z,18
2017-05-12T12:17:39.645Z,18.3
2017-05-12T12:18:42.080Z,18.3
2017-05-12T12:19:45.447Z,18.3
2017-05-12T12:20:54.551Z,18.3
2017-05-12T12:21:57.108Z,18.1
2017-05-12T12:22:59.625Z,17.9
2017-05-12T12:24:02.173Z,18
2017-05-12T12:25:04.702Z,18
2017-05-12T12:26:07.137Z,18
2017-05-12T12:27:09.714Z,18.1
2017-05-12T12:28:12.164Z,18.1
2017-05-12T12:29:14.739Z,18.1
2017-05-12T12:30:18.038Z,18
2017-05-12T12:32:32.012Z,18.1
2017-05-12T12:33:34.534Z,18.1
2017-05-12T12:34:36.991Z,18.1
2017-05-12T12:35:40.785Z,18.2
2017-05-12T12:36:43.232Z,18
2017-05-12T12:37:45.698Z,17.9
2017-05-12T12:38:48.331Z,18.1
2017-05-12T12:39:50.849Z,18.1
2017-05-12T12:40:53.329Z,18
2017-05-12T12:41:55.794Z,17.9
2017-05-12T12:42:58.330Z,18
2017-05-12T12:44:00.909Z,18.1
2017-05-12T12:45:04.075Z,18
2017-05-12T12:46:07.215Z,17.8
2017-05-12T12:47:10.283Z,17.9
2017-05-12T12:48:13.825Z,18
2017-05-12T12:49:16.892Z,17.9
2017-05-12T12:50:19.372Z,17.9
2017-05-12T12:51:21.870Z,18.1
2017-05-12T12:52:24.834Z,18.3
2017-05-12T12:53:27.490Z,18.3
2017-05-12T12:54:29.932Z,18.1
2017-05-12T12:55:32.432Z,18.2
2017-05-12T12:56:34.908Z,18.2
2017-05-12T12:57:37.352Z,18.1
2017-05-12T12:58:39.944Z,18.1
2017-05-12T12:59:42.446Z,18.2
2017-05-12T13:00:44.997Z,18.2
2017-05-12T13:01:47.506Z,18.4
2017-05-12T13:02:50.015Z,18.5
2017-05-12T13:03:52.506Z,18.6
2017-05-12T13:04:55.489Z,18.6
2017-05-12T13:05:58.197Z,18.8
2017-05-12T13:07:01.429Z,18.8
2017-05-12T13:08:03.916Z,18.7
2017-05-12T13:09:07.440Z,18.8
2017-05-12T13:10:10.010Z,18.8
2017-05-12T13:11:13.241Z,19.4
2017-05-12T13:12:15.702Z,19.4
2017-05-12T13:13:19.557Z,19.6
2017-05-12T13:14:22.058Z,19.2
2017-05-12T13:15:24.548Z,19.5
2017-05-12T13:16:27.000Z,19.6
2017-05-12T13:17:29.563Z,19.5
2017-05-12T13:18:32.083Z,19.5
2017-05-12T13:19:35.194Z,19.6
2017-05-12T13:20:37.722Z,19.7
2017-05-12T13:21:42.032Z,19.6
2017-05-12T13:22:46.477Z,19.6
2017-05-12T13:23:49.955Z,19.6
2017-05-12T13:24:53.820Z,19.7
2017-05-12T13:25:57.300Z,19.7
2017-05-12T13:26:59.938Z,19.8
2017-05-12T13:28:04.532Z,19.8
2017-05-12T13:29:08.250Z,20.1
2017-05-12T13:30:11.530Z,20
2017-05-12T13:31:14.518Z,19.8
2017-05-12T13:32:17.919Z,19.8
2017-05-12T13:33:20.561Z,19.9
2017-05-12T13:34:24.968Z,19.9
2017-05-12T13:35:27.480Z,19.9
2017-05-12T13:36:31.072Z,19.9
2017-05-12T13:37:37.524Z,19.8
2017-05-12T13:38:40.118Z,19.4
2017-05-12T13:39:42.549Z,19.4
2017-05-12T13:40:45.033Z,19.5
2017-05-12T13:41:47.642Z,19.4
2017-05-12T13:42:50.766Z,19.4
2017-05-12T13:43:53.249Z,19.1
2017-05-12T13:44:56.316Z,19.2
2017-05-12T13:45:59.484Z,19.2
2017-05-12T13:47:02.023Z,19.3
2017-05-12T13:49:19.439Z,19.4
2017-05-12T13:50:21.892Z,19.5
2017-05-12T13:51:24.415Z,19.3
2017-05-12T13:52:26.910Z,19.1
2017-05-12T13:53:29.557Z,19.3
2017-05-12T13:54:32.563Z,19.4
2017-05-12T13:55:35.673Z,19.3
2017-05-12T13:56:38.178Z,19.4
2017-05-12T13:57:40.770Z,19.3
2017-05-12T13:58:43.300Z,19.5
2017-05-12T13:59:45.836Z,19.6
2017-05-12T14:00:49.598Z,19.6
2017-05-12T14:01:52.117Z,19.7
2017-05-12T14:02:56.559Z,19.5
2017-05-12T14:03:59.067Z,19.4
2017-05-12T14:05:02.300Z,19.4
2017-05-12T14:06:04.846Z,19.2
2017-05-12T14:07:07.328Z,19.5
2017-05-12T14:08:11.714Z,19.6